Time;durP1;ratioP1;P1;durP2;ratioP2;P2;SDS_P1;SDS_P2;PMS_P1;PMS_P2;Temp;Humidity;BMP_temperature;BMP_pressure;BME280_temperature;BME280_humidity;BME280_pressure;Samples;Min_cycle;Max_cycle;Signal;HPM_P1;HPM_P2
2021/08/17 00:05:25;;;;;;;2.15;1.83;;;21.50;61.80;;;;;;20834925;28;20037;-21
2021/08/17 00:15:26;;;;;;;1.33;0.83;;;21.50;61.80;;;;;;20833788;28;20156;-21
2021/08/17 00:25:27;;;;;;;2.53;1.00;;;21.50;61.90;;;;;;20832117;28;20556;-21
2021/08/17 00:35:27;;;;;;;1.55;0.90;;;21.50;61.80;;;;;;20831136;28;20065;-21
2021/08/17 00:45:29;;;;;;;2.05;1.13;;;21.40;61.80;;;;;;20830349;28;20121;-21
2021/08/17 00:55:31;;;;;;;2.72;1.42;;;21.40;61.80;;;;;;20829938;28;20402;-21
2021/08/17 01:05:31;;;;;;;2.30;0.85;;;21.50;61.80;;;;;;20828942;28;20471;-21
2021/08/17 01:15:32;;;;;;;1.65;0.82;;;21.40;61.80;;;;;;20828246;28;20112;-21
2021/08/17 01:25:34;;;;;;;10.32;1.70;;;21.40;61.80;;;;;;20828010;28;20037;-21
2021/08/17 01:35:36;;;;;;;10.43;2.25;;;21.40;60.20;;;;;;20829961;28;20050;-20
2021/08/17 01:45:36;;;;;;;9.73;2.33;;;21.30;58.90;;;;;;20827040;28;20033;-20
2021/08/17 01:55:37;;;;;;;9.82;3.15;;;21.20;58.60;;;;;;20826423;28;20103;-21
2021/08/17 02:05:37;;;;;;;9.43;2.72;;;21.10;58.20;;;;;;20825627;28;20131;-20
2021/08/17 02:15:38;;;;;;;13.30;2.42;;;21.00;58.00;;;;;;20825422;28;20068;-21
2021/08/17 02:25:39;;;;;;;11.20;2.60;;;20.90;57.70;;;;;;20824831;28;20064;-21
2021/08/17 02:35:41;;;;;;;11.20;3.50;;;20.90;57.60;;;;;;20823370;28;20037;-20
2021/08/17 02:45:41;;;;;;;12.68;3.42;;;20.80;57.50;;;;;;20822648;28;20038;-20
2021/08/17 02:55:42;;;;;;;9.80;3.08;;;20.80;57.40;;;;;;20822026;28;20401;-20
2021/08/17 03:05:43;;;;;;;16.98;3.30;;;20.70;56.90;;;;;;20821286;28;20037;-20
2021/08/17 03:15:44;;;;;;;9.18;2.75;;;20.60;56.60;;;;;;20819806;28;20037;-20
2021/08/17 03:25:44;;;;;;;11.90;3.23;;;20.70;56.80;;;;;;20820140;28;20037;-20
2021/08/17 03:35:45;;;;;;;12.13;2.85;;;20.60;56.80;;;;;;20819728;28;20029;-19
2021/08/17 03:45:45;;;;;;;17.57;2.73;;;20.60;56.10;;;;;;20819632;28;20042;-20
2021/08/17 03:55:46;;;;;;;10.38;2.35;;;20.50;56.00;;;;;;20819089;28;20069;-21
2021/08/17 04:05:46;;;;;;;11.15;2.83;;;20.50;56.60;;;;;;20818882;28;20107;-21
2021/08/17 04:15:47;;;;;;;6.60;2.80;;;20.50;55.80;;;;;;20818539;28;20053;-21
2021/08/17 04:25:48;;;;;;;11.82;3.13;;;20.40;55.50;;;;;;20828205;28;20034;-21
2021/08/17 04:35:48;;;;;;;8.85;2.28;;;20.40;55.60;;;;;;20833230;28;20044;-20
2021/08/17 04:45:52;;;;;;;13.95;3.08;;;20.30;55.00;;;;;;20833001;28;20037;-20
2021/08/17 04:55:53;;;;;;;10.98;2.03;;;20.30;54.70;;;;;;20831443;28;20537;-21
2021/08/17 05:05:53;;;;;;;7.70;2.25;;;20.30;54.70;;;;;;20836943;28;20037;-23
2021/08/17 05:15:54;;;;;;;8.38;1.80;;;20.20;54.30;;;;;;20833655;28;20049;-21
2021/08/17 05:25:55;;;;;;;9.80;2.75;;;20.20;54.50;;;;;;20830272;28;20030;-22
2021/08/17 05:35:56;;;;;;;12.93;2.72;;;20.20;54.70;;;;;;20836154;28;20128;-20
2021/08/17 05:45:57;;;;;;;15.50;2.90;;;20.20;54.70;;;;;;20832305;28;20033;-21
2021/08/17 05:55:57;;;;;;;7.03;2.03;;;20.20;54.50;;;;;;20827102;28;20037;-21
2021/08/17 06:05:59;;;;;;;4.75;1.50;;;20.10;54.20;;;;;;20826525;28;20116;-21
2021/08/17 06:16:00;;;;;;;9.77;1.80;;;20.10;53.90;;;;;;20825784;28;20113;-21
2021/08/17 06:26:00;;;;;;;11.20;2.63;;;20.10;53.90;;;;;;20824754;28;20065;-21
2021/08/17 06:36:01;;;;;;;7.07;1.88;;;20.00;53.60;;;;;;20824325;28;20687;-21
2021/08/17 06:46:02;;;;;;;8.45;2.05;;;20.00;53.70;;;;;;20823860;28;20046;-21
2021/08/17 06:56:03;;;;;;;11.52;2.00;;;20.10;53.70;;;;;;20823326;28;20088;-20
2021/08/17 07:06:04;;;;;;;4.95;1.25;;;20.00;53.60;;;;;;20796827;28;20042;-21
2021/08/17 07:16:04;;;;;;;8.83;2.70;;;20.00;53.40;;;;;;20810578;28;20038;-20
2021/08/17 07:26:05;;;;;;;5.53;1.50;;;20.00;53.20;;;;;;20800104;28;20914;-20
2021/08/17 07:36:06;;;;;;;8.45;2.50;;;19.90;52.70;;;;;;20779240;28;20468;-20
2021/08/17 07:46:07;;;;;;;12.85;2.13;;;19.90;52.60;;;;;;20787066;28;20657;-20
2021/08/17 07:56:07;;;;;;;4.53;1.23;;;19.90;52.50;;;;;;20748618;28;20034;-21
2021/08/17 08:06:09;;;;;;;7.47;2.20;;;19.90;52.30;;;;;;20751195;28;20473;-21
2021/08/17 08:16:09;;;;;;;10.02;2.47;;;19.80;52.20;;;;;;20753531;28;20465;-21
2021/08/17 08:26:10;;;;;;;15.50;3.13;;;19.90;52.10;;;;;;20753589;28;20029;-22
2021/08/17 08:36:10;;;;;;;13.45;3.90;;;19.90;53.10;;;;;;20752219;28;20037;-21
2021/08/17 08:46:16;;;;;;;8.25;2.15;;;19.90;52.50;;;;;;20751041;28;20038;-21
2021/08/17 08:56:17;;;;;;;22.00;3.03;;;19.80;52.50;;;;;;20751510;28;20060;-20
2021/08/17 09:06:23;;;;;;;14.93;2.85;;;19.80;52.00;;;;;;20748519;28;20519;-20
2021/08/17 09:16:27;;;;;;;9.65;2.45;;;19.90;53.00;;;;;;20748283;28;20033;-21
2021/08/17 09:26:29;;;;;;;16.27;4.20;;;19.90;53.40;;;;;;20748441;28;20061;-21
2021/08/17 09:36:37;;;;;;;11.70;4.13;;;20.00;53.90;;;;;;20746988;28;20084;-21
2021/08/17 09:46:40;;;;;;;10.05;3.22;;;20.10;54.20;;;;;;20746179;28;20453;-21
2021/08/17 09:56:41;;;;;;;22.63;3.70;;;20.10;54.30;;;;;;20751477;28;20038;-22
2021/08/17 10:06:43;;;;;;;11.73;4.93;;;20.20;54.20;;;;;;20762055;28;20041;-22
2021/08/17 10:16:44;;;;;;;11.00;3.20;;;20.20;53.90;;;;;;20774338;28;20038;-21
2021/08/17 10:26:45;;;;;;;6.82;3.70;;;20.30;53.50;;;;;;20770155;28;20494;-21
2021/08/17 10:36:46;;;;;;;11.95;4.20;;;20.20;52.80;;;;;;20802012;28;20144;-21
2021/08/17 10:46:56;;;;;;;7.65;3.50;;;20.20;53.00;;;;;;20754127;28;20607;-21
2021/08/17 10:57:17;;;;;;;9.88;4.50;;;20.20;52.70;;;;;;20740179;28;20036;-21
2021/08/17 11:07:32;;;;;;;12.90;4.88;;;20.20;52.80;;;;;;20740728;28;20117;-21
2021/08/17 11:17:33;;;;;;;11.48;4.28;;;20.30;53.60;;;;;;20739876;28;20041;-21
2021/08/17 11:27:40;;;;;;;17.13;4.93;;;20.40;54.00;;;;;;20739230;28;20044;-19
2021/08/17 11:37:49;;;;;;;8.57;4.22;;;20.50;54.30;;;;;;20750352;28;20050;-21
2021/08/17 11:47:51;;;;;;;17.42;5.05;;;20.50;54.40;;;;;;20742087;28;20092;-21
2021/08/17 11:58:07;;;;;;;14.63;5.60;;;20.40;54.20;;;;;;20779004;28;20159;-21
2021/08/17 12:08:14;;;;;;;15.40;5.82;;;20.40;54.50;;;;;;20818546;28;20575;-21
2021/08/17 12:18:17;;;;;;;16.27;5.75;;;20.40;54.70;;;;;;20818128;28;20399;-21
2021/08/17 12:28:29;;;;;;;22.38;6.20;;;20.50;54.80;;;;;;20818000;28;20528;-19
2021/08/17 12:38:36;;;;;;;12.30;5.28;;;20.40;54.80;;;;;;20817388;28;20037;-20
2021/08/17 12:48:43;;;;;;;15.85;7.55;;;20.40;54.80;;;;;;20830909;28;20037;-23
2021/08/17 12:58:45;;;;;;;17.30;5.78;;;20.40;54.60;;;;;;20789030;28;20033;-21
2021/08/17 13:08:46;;;;;;;10.10;5.93;;;20.40;54.80;;;;;;20800912;28;20510;-20
2021/08/17 13:18:46;;;;;;;18.08;6.40;;;20.50;55.10;;;;;;20830169;28;20057;-21
2021/08/17 13:28:47;;;;;;;9.77;5.28;;;20.40;55.00;;;;;;20828883;28;20498;-21
2021/08/17 13:38:47;;;;;;;10.65;5.43;;;20.40;55.30;;;;;;20816790;28;20038;-21
2021/08/17 13:48:48;;;;;;;17.08;8.20;;;20.40;55.40;;;;;;20807342;28;20045;-21
2021/08/17 13:58:50;;;;;;;11.30;6.75;;;20.50;55.50;;;;;;20825403;28;20033;-21
2021/08/17 14:08:50;;;;;;;10.93;6.40;;;20.40;55.40;;;;;;20828230;28;20061;-21
2021/08/17 14:18:51;;;;;;;13.20;6.72;;;20.40;55.50;;;;;;20763691;28;20553;-21
2021/08/17 14:28:54;;;;;;;11.57;6.65;;;20.40;55.60;;;;;;20739035;28;20577;-21
2021/08/17 14:38:54;;;;;;;11.18;6.93;;;20.40;55.90;;;;;;20745720;28;20041;-21
2021/08/17 14:48:55;;;;;;;10.10;6.33;;;20.40;56.00;;;;;;20741707;28;20041;-20
2021/08/17 14:58:57;;;;;;;8.52;6.38;;;20.40;55.90;;;;;;20733181;28;21017;-20
2021/08/17 15:08:58;;;;;;;11.23;7.70;;;20.40;56.10;;;;;;20735038;28;20030;-20
2021/08/17 15:19:01;;;;;;;9.52;6.07;;;20.40;56.20;;;;;;20740560;28;20044;-21
2021/08/17 15:29:01;;;;;;;11.60;7.30;;;20.40;56.40;;;;;;20759973;28;20030;-19
2021/08/17 15:39:02;;;;;;;7.75;6.38;;;20.40;56.40;;;;;;20801377;28;20069;-21
2021/08/17 15:49:03;;;;;;;10.63;6.72;;;20.50;56.60;;;;;;20825132;28;20088;-20
2021/08/17 15:59:04;;;;;;;11.77;7.13;;;20.40;56.70;;;;;;20820702;28;20053;-22
2021/08/17 16:09:07;;;;;;;9.70;7.03;;;20.40;56.90;;;;;;20820134;28;20116;-21
2021/08/17 16:19:07;;;;;;;11.55;8.13;;;20.40;57.20;;;;;;20825286;28;20029;-21
2021/08/17 16:29:08;;;;;;;9.57;6.75;;;20.30;57.90;;;;;;20834596;28;20077;-21
2021/08/17 16:39:08;;;;;;;12.53;7.47;;;20.30;57.70;;;;;;20835043;28;20057;-21
2021/08/17 16:49:09;;;;;;;9.80;6.23;;;20.30;57.80;;;;;;20833863;28;20480;-21
2021/08/17 16:59:11;;;;;;;10.95;7.30;;;20.30;57.90;;;;;;20832920;28;20065;-19
2021/08/17 17:09:11;;;;;;;8.95;7.18;;;20.30;58.00;;;;;;20855608;23;20494;-19
2021/08/17 17:19:12;;;;;;;8.75;5.28;;;20.30;58.00;;;;;;20833184;28;20116;-19
2021/08/17 17:29:12;;;;;;;8.18;5.70;;;20.30;58.30;;;;;;20829825;28;20497;-19
2021/08/17 17:39:14;;;;;;;6.55;4.95;;;20.30;58.30;;;;;;20829094;28;20041;-21
2021/08/17 17:49:14;;;;;;;9.40;5.30;;;20.30;58.30;;;;;;20828041;28;20029;-20
2021/08/17 17:59:15;;;;;;;6.45;4.20;;;20.30;58.60;;;;;;20854825;28;20088;-20
2021/08/17 18:09:15;;;;;;;8.88;5.25;;;20.30;58.60;;;;;;20827565;28;20103;-19
2021/08/17 18:19:16;;;;;;;20.38;5.65;;;20.40;58.60;;;;;;20823720;28;20038;-19
2021/08/17 18:29:16;;;;;;;22.88;6.40;;;20.60;60.60;;;;;;20805745;28;20090;-18
2021/08/17 18:39:17;;;;;;;26.10;5.63;;;20.60;60.30;;;;;;20820784;28;20026;-20
2021/08/17 18:49:17;;;;;;;19.80;5.38;;;20.60;60.20;;;;;;20821063;28;20473;-20
2021/08/17 18:59:18;;;;;;;14.77;5.90;;;20.50;60.80;;;;;;20820157;28;20045;-20
2021/08/17 19:09:18;;;;;;;24.55;5.88;;;20.60;60.80;;;;;;20814213;28;20031;-19
2021/08/17 19:19:19;;;;;;;25.50;5.28;;;20.60;60.90;;;;;;20818615;28;20474;-19
2021/08/17 19:29:20;;;;;;;15.13;5.50;;;20.60;61.10;;;;;;20816911;28;20048;-19
2021/08/17 19:39:22;;;;;;;18.30;5.95;;;20.50;61.70;;;;;;20819282;28;20033;-20
2021/08/17 19:49:23;;;;;;;21.48;6.32;;;20.50;62.70;;;;;;20818828;28;20034;-19
2021/08/17 19:59:23;;;;;;;17.98;5.05;;;20.50;61.80;;;;;;20832072;28;20130;-19
2021/08/17 20:09:24;;;;;;;18.73;5.72;;;20.60;61.40;;;;;;20833433;28;20063;-20
2021/08/17 20:19:26;;;;;;;25.98;7.03;;;20.60;61.90;;;;;;20831720;28;20029;-20
2021/08/17 20:29:26;;;;;;;27.95;5.47;;;20.60;63.00;;;;;;20832579;28;20037;-20
2021/08/17 20:39:27;;;;;;;13.47;4.77;;;20.60;62.90;;;;;;20831583;28;20033;-19
2021/08/17 20:49:28;;;;;;;12.18;4.70;;;20.60;63.20;;;;;;20829816;28;20504;-20
2021/08/17 20:59:28;;;;;;;12.27;5.97;;;20.60;63.40;;;;;;20828165;28;20484;-20
2021/08/17 21:09:29;;;;;;;12.03;4.70;;;20.70;63.00;;;;;;20830975;28;20183;-19
2021/08/17 21:19:29;;;;;;;10.85;4.80;;;20.60;62.40;;;;;;20829797;28;20053;-20
2021/08/17 21:29:30;;;;;;;10.60;5.30;;;20.70;63.70;;;;;;20827829;28;20104;-20
2021/08/17 21:39:31;;;;;;;10.50;4.75;;;20.60;63.90;;;;;;20838306;28;20095;-19
2021/08/17 21:49:33;;;;;;;9.70;4.73;;;20.60;63.40;;;;;;20828205;28;20038;-20
2021/08/17 21:59:35;;;;;;;7.80;4.13;;;20.70;63.00;;;;;;20828435;28;20087;-20
2021/08/17 22:09:35;;;;;;;6.70;3.65;;;20.60;63.10;;;;;;20839314;28;20512;-21
2021/08/17 22:19:36;;;;;;;13.23;5.00;;;20.70;64.10;;;;;;20842244;28;20064;-20
2021/08/17 22:29:36;;;;;;;10.43;4.80;;;20.70;63.40;;;;;;20837210;28;20029;-19
2021/08/17 22:39:37;;;;;;;8.90;4.43;;;20.70;63.00;;;;;;20827197;28;20116;-19
2021/08/17 22:49:37;;;;;;;7.55;3.72;;;20.70;63.30;;;;;;20822481;28;20042;-20
2021/08/17 22:59:38;;;;;;;7.22;3.85;;;20.70;63.60;;;;;;20820186;28;20041;-20
2021/08/17 23:09:39;;;;;;;8.88;4.20;;;20.70;62.60;;;;;;20831237;23;20046;-21
2021/08/17 23:19:42;;;;;;;12.95;5.38;;;20.60;63.40;;;;;;20737410;28;20567;-21
2021/08/17 23:29:43;;;;;;;9.30;5.07;;;20.50;65.60;;;;;;20731941;28;20410;-20
2021/08/17 23:39:43;;;;;;;5.07;3.80;;;20.50;66.00;;;;;;20733655;28;20103;-20
2021/08/17 23:49:44;;;;;;;9.15;3.42;;;20.50;66.00;;;;;;20735767;28;20497;-20
2021/08/17 23:59:45;;;;;;;5.88;3.50;;;20.50;66.00;;;;;;20738710;28;20053;-21
